Time;durP1;ratioP1;P1;durP2;ratioP2;P2;SDS_P1;SDS_P2;PMS_P1;PMS_P2;Temp;Humidity;BMP_temperature;BMP_pressure;BME280_temperature;BME280_humidity;BME280_pressure;Samples;Min_cycle;Max_cycle;Signal;HPM_P1;HPM_P2
2021/09/16 00:01:31;;;;;;;11.55;5.88;;;;;;;19.55;69.86;101121.97;5057644;28;20053;-63
2021/09/16 00:03:58;;;;;;;10.45;6.90;;;;;;;19.52;70.08;101123.50;5040038;28;20045;-63
2021/09/16 00:06:25;;;;;;;9.60;6.68;;;;;;;19.37;70.67;101129.13;5057974;28;20413;-62
2021/09/16 00:08:52;;;;;;;10.68;7.68;;;;;;;19.43;70.34;101130.47;5056025;28;20057;-62
2021/09/16 00:11:20;;;;;;;13.07;6.72;;;;;;;19.41;70.82;101122.44;5057285;28;20045;-63
2021/09/16 00:13:47;;;;;;;11.18;7.05;;;;;;;19.53;70.64;101129.88;5070595;28;20059;-67
2021/09/16 00:16:15;;;;;;;12.50;7.03;;;;;;;19.49;70.05;101121.41;5077336;28;20051;-63
2021/09/16 00:18:42;;;;;;;11.80;6.38;;;;;;;19.59;70.06;101123.69;5073206;28;20156;-63
2021/09/16 00:21:09;;;;;;;12.68;6.50;;;;;;;19.55;69.80;101124.75;5057941;28;20053;-63
2021/09/16 00:23:37;;;;;;;12.52;7.53;;;;;;;18.63;73.57;101129.97;5057032;28;20053;-62
2021/09/16 00:26:04;;;;;;;12.80;6.75;;;;;;;18.90;72.65;101113.16;5055240;28;20779;-63
2021/09/16 00:28:32;;;;;;;13.65;8.07;;;;;;;19.02;72.12;101115.06;5057436;28;20041;-62
2021/09/16 00:30:59;;;;;;;15.90;7.63;;;;;;;19.09;71.69;101115.22;5055666;28;20045;-63
2021/09/16 00:33:26;;;;;;;9.90;6.55;;;;;;;19.20;71.45;101110.72;5055857;28;20052;-63
2021/09/16 00:35:54;;;;;;;11.38;6.32;;;;;;;19.30;71.52;101121.38;5055546;28;20044;-63
2021/09/16 00:38:21;;;;;;;11.07;6.82;;;;;;;19.25;71.22;101124.41;5056668;28;20041;-62
2021/09/16 00:40:48;;;;;;;13.13;7.32;;;;;;;18.97;72.00;101123.69;5056802;28;20049;-62
2021/09/16 00:43:16;;;;;;;14.27;7.03;;;;;;;18.64;73.13;101129.59;5057100;28;20476;-63
2021/09/16 00:45:43;;;;;;;8.48;6.30;;;;;;;18.89;73.47;101139.47;5057182;28;20045;-64
2021/09/16 00:48:10;;;;;;;12.52;6.63;;;;;;;18.62;73.22;101142.31;5056694;28;20053;-63
2021/09/16 00:50:38;;;;;;;10.80;6.45;;;;;;;18.48;73.94;101137.13;5056570;28;20053;-63
2021/09/16 00:53:05;;;;;;;11.40;6.78;;;;;;;18.54;74.05;101143.25;5056651;28;20049;-63
2021/09/16 00:55:33;;;;;;;10.65;6.18;;;;;;;18.90;73.25;101146.66;5056617;28;20045;-64
2021/09/16 00:58:02;;;;;;;13.10;6.82;;;;;;;18.87;73.60;101146.56;5055860;28;20049;-64
2021/09/16 01:00:30;;;;;;;10.20;6.22;;;;;;;18.76;74.63;101145.47;5056853;28;20492;-63
2021/09/16 01:02:57;;;;;;;12.02;6.60;;;;;;;18.52;75.58;101143.63;5055007;28;20060;-63
2021/09/16 01:05:24;;;;;;;9.23;6.25;;;;;;;18.78;74.89;101149.53;5056343;28;20063;-63
2021/09/16 01:07:52;;;;;;;9.82;6.20;;;;;;;18.09;76.71;101153.88;5056501;28;20048;-62
2021/09/16 01:10:19;;;;;;;11.60;6.60;;;;;;;17.69;79.04;101153.84;5056501;28;20392;-62
2021/09/16 01:12:46;;;;;;;9.88;6.50;;;;;;;17.88;78.63;101151.28;5056641;28;20419;-62
2021/09/16 01:15:15;;;;;;;10.30;6.00;;;;;;;18.04;78.74;101162.50;5056277;28;20052;-63
2021/09/16 01:17:45;;;;;;;14.00;6.22;;;;;;;18.11;77.69;101157.94;5056982;28;20056;-63
2021/09/16 01:20:12;;;;;;;8.82;5.65;;;;;;;17.89;78.90;101166.81;5056582;28;20056;-63
2021/09/16 01:22:40;;;;;;;9.13;5.25;;;;;;;17.68;80.09;101169.75;5054243;28;20068;-63
2021/09/16 01:25:08;;;;;;;11.60;6.05;;;;;;;17.29;81.72;101164.88;5056328;28;20052;-63
2021/09/16 01:27:35;;;;;;;7.80;5.68;;;;;;;17.34;82.37;101167.44;5055411;28;20045;-65
2021/09/16 01:30:05;;;;;;;7.85;5.55;;;;;;;17.29;82.35;101169.63;5056191;28;20144;-63
2021/09/16 01:32:32;;;;;;;9.55;6.03;;;;;;;17.39;82.25;101174.72;5055899;28;20049;-63
2021/09/16 01:35:00;;;;;;;9.13;5.70;;;;;;;17.74;81.39;101181.47;5055745;28;20052;-63
2021/09/16 01:37:27;;;;;;;10.15;6.00;;;;;;;17.82;80.41;101180.53;5055969;28;20052;-63
2021/09/16 01:39:54;;;;;;;11.23;6.25;;;;;;;17.74;79.81;101178.69;5054477;28;20044;-63
2021/09/16 01:42:21;;;;;;;10.98;5.93;;;;;;;17.53;81.06;101169.66;5055983;28;20060;-63
2021/09/16 01:44:49;;;;;;;9.23;5.75;;;;;;;17.24;82.56;101173.47;5056445;28;20060;-63
2021/09/16 01:47:16;;;;;;;10.15;6.40;;;;;;;17.23;82.47;101173.78;5055402;28;20049;-63
2021/09/16 01:49:43;;;;;;;11.48;6.22;;;;;;;17.23;82.79;101180.19;5054661;28;20522;-63
2021/09/16 01:52:10;;;;;;;11.98;6.20;;;;;;;17.15;82.97;101171.94;5055692;28;20053;-63
2021/09/16 01:54:38;;;;;;;11.10;6.25;;;;;;;17.39;81.96;101183.91;5055280;28;20052;-63
2021/09/16 01:57:05;;;;;;;11.45;5.90;;;;;;;17.56;80.89;101182.88;5055389;28;20047;-63
2021/09/16 01:59:32;;;;;;;9.90;6.05;;;;;;;17.64;80.81;101184.75;5053926;28;20084;-63
2021/09/16 02:02:00;;;;;;;8.82;5.80;;;;;;;17.26;82.32;101179.47;5055595;28;20052;-62
2021/09/16 02:04:27;;;;;;;7.88;5.22;;;;;;;17.46;81.64;101181.38;5055085;28;20163;-62
2021/09/16 02:06:54;;;;;;;9.95;5.97;;;;;;;17.20;82.89;101186.44;5053710;28;20049;-64
2021/09/16 02:09:21;;;;;;;14.40;6.97;;;;;;;16.74;84.78;101186.78;5055268;28;20579;-62
2021/09/16 02:11:49;;;;;;;14.98;6.20;;;;;;;16.88;84.32;101194.84;5055126;28;20458;-63
2021/09/16 02:14:16;;;;;;;10.68;5.65;;;;;;;16.89;85.01;101184.16;5072031;28;20685;-63
2021/09/16 02:16:43;;;;;;;10.68;5.78;;;;;;;17.01;84.07;101183.41;5071938;28;20056;-63
2021/09/16 02:19:11;;;;;;;11.80;6.10;;;;;;;16.52;86.44;101182.44;5055217;28;20053;-67
2021/09/16 02:21:38;;;;;;;9.43;5.72;;;;;;;16.89;85.79;101189.72;5054055;28;20045;-62
2021/09/16 02:24:05;;;;;;;11.23;5.75;;;;;;;16.97;84.84;101185.25;5055418;28;20053;-63
2021/09/16 02:26:32;;;;;;;9.85;6.05;;;;;;;16.78;84.94;101187.75;5055046;28;20057;-63
2021/09/16 02:29:00;;;;;;;9.88;6.35;;;;;;;16.37;87.36;101191.38;5050702;28;20061;-63
2021/09/16 02:31:27;;;;;;;11.45;6.13;;;;;;;16.43;88.08;101206.72;5054985;28;20052;-65
2021/09/16 02:33:54;;;;;;;16.95;6.40;;;;;;;16.48;88.04;101200.16;5055246;28;20049;-62
2021/09/16 02:36:22;;;;;;;9.93;5.75;;;;;;;16.61;87.24;101193.50;5055250;28;20083;-62
2021/09/16 02:38:49;;;;;;;13.98;6.80;;;;;;;16.48;87.43;101189.84;5054199;28;20051;-63
2021/09/16 02:41:17;;;;;;;11.40;6.30;;;;;;;16.30;88.69;101199.44;5054585;28;20452;-63
2021/09/16 02:43:44;;;;;;;13.77;7.13;;;;;;;16.24;89.68;101194.44;5053091;28;20057;-63
2021/09/16 02:46:11;;;;;;;13.07;7.18;;;;;;;16.30;89.93;101202.22;5054879;28;20052;-64
2021/09/16 02:48:39;;;;;;;14.38;6.38;;;;;;;16.58;87.93;101194.19;5054883;28;20052;-63
2021/09/16 02:51:06;;;;;;;10.10;6.10;;;;;;;16.66;86.88;101190.50;5055791;28;20056;-62
2021/09/16 02:53:34;;;;;;;13.68;6.70;;;;;;;16.42;88.10;101196.72;5054538;28;20057;-63
2021/09/16 02:56:01;;;;;;;10.43;5.93;;;;;;;16.85;87.79;101191.59;5054433;28;20045;-63
2021/09/16 02:58:28;;;;;;;15.18;6.07;;;;;;;17.18;85.07;101199.06;5053489;28;20049;-62
2021/09/16 03:00:55;;;;;;;11.43;5.95;;;;;;;16.99;84.50;101194.06;5052845;28;20060;-63
2021/09/16 03:03:26;;;;;;;12.65;6.10;;;;;;;17.25;84.48;101210.44;5054752;28;20056;-64
2021/09/16 03:05:53;;;;;;;12.43;6.57;;;;;;;17.24;84.38;101203.28;5052086;28;20572;-64
2021/09/16 03:08:20;;;;;;;12.65;5.97;;;;;;;17.32;83.68;101208.72;5053292;28;20049;-64
2021/09/16 03:10:48;;;;;;;9.07;5.95;;;;;;;17.55;82.07;101211.91;5052867;28;20501;-63
2021/09/16 03:13:16;;;;;;;17.20;6.10;;;;;;;17.67;81.56;101212.72;5077809;28;20060;-64
2021/09/16 03:15:43;;;;;;;11.55;6.35;;;;;;;17.39;82.46;101210.94;5034796;28;20046;-64
2021/09/16 03:18:11;;;;;;;12.88;5.60;;;;;;;17.28;82.68;101206.97;5066515;28;20057;-64
2021/09/16 03:20:38;;;;;;;12.23;5.82;;;;;;;16.85;84.80;101213.88;5033075;28;20042;-63
2021/09/16 03:23:05;;;;;;;13.45;6.30;;;;;;;16.80;85.31;101216.88;5040851;28;20425;-63
2021/09/16 03:25:32;;;;;;;13.70;6.20;;;;;;;16.72;85.87;101219.69;5053988;28;20060;-63
2021/09/16 03:28:00;;;;;;;9.88;5.95;;;;;;;16.70;85.98;101216.47;5054631;28;20053;-64
2021/09/16 03:30:27;;;;;;;9.80;5.95;;;;;;;16.75;86.32;101219.03;5054883;28;20057;-63
2021/09/16 03:32:57;;;;;;;9.95;6.60;;;;;;;16.88;85.74;101220.69;5054076;28;20159;-63
2021/09/16 03:35:24;;;;;;;13.48;6.70;;;;;;;17.08;84.35;101208.69;5053824;28;20483;-64
2021/09/16 03:37:51;;;;;;;11.85;6.22;;;;;;;17.06;84.46;101207.41;5036526;28;20469;-62
2021/09/16 03:40:18;;;;;;;10.88;6.32;;;;;;;17.28;83.80;101216.13;5054159;28;20049;-62
2021/09/16 03:42:46;;;;;;;11.02;5.88;;;;;;;17.34;82.89;101208.38;5053933;28;20049;-62
2021/09/16 03:45:13;;;;;;;10.18;6.28;;;;;;;17.13;83.37;101207.66;5052835;28;20451;-63
2021/09/16 03:47:40;;;;;;;13.93;5.85;;;;;;;17.40;83.44;101207.00;5054074;28;20041;-63
2021/09/16 03:50:08;;;;;;;12.52;6.22;;;;;;;17.58;82.11;101214.00;5054330;28;20381;-63
2021/09/16 03:52:35;;;;;;;9.95;5.63;;;;;;;17.83;81.11;101213.66;5053653;28;20045;-63
2021/09/16 03:55:04;;;;;;;14.90;7.47;;;;;;;17.44;81.56;101217.09;5053838;28;20048;-63
2021/09/16 03:57:31;;;;;;;12.73;6.22;;;;;;;17.36;82.04;101220.00;5053778;28;20079;-62
2021/09/16 03:59:59;;;;;;;14.00;6.70;;;;;;;17.25;83.20;101218.81;5052753;28;20045;-62
2021/09/16 04:02:26;;;;;;;10.25;6.47;;;;;;;17.09;83.86;101217.84;5052409;28;20053;-63
2021/09/16 04:04:53;;;;;;;14.48;6.82;;;;;;;16.89;84.77;101225.13;5052989;28;20061;-62
2021/09/16 04:07:20;;;;;;;10.32;6.55;;;;;;;17.24;83.66;101225.53;5052938;28;20049;-62
2021/09/16 04:09:47;;;;;;;10.32;6.20;;;;;;;17.55;82.69;101229.44;5053750;28;20049;-62
2021/09/16 04:12:15;;;;;;;14.30;7.47;;;;;;;17.47;81.20;101233.13;5052790;28;20055;-62
2021/09/16 04:14:42;;;;;;;12.38;7.32;;;;;;;17.43;81.53;101231.38;5057124;28;20542;-62
2021/09/16 04:17:09;;;;;;;10.50;6.25;;;;;;;17.32;82.38;101233.78;5057691;28;20052;-64
2021/09/16 04:19:36;;;;;;;12.30;6.68;;;;;;;17.48;81.99;101245.91;5057251;28;20049;-63
2021/09/16 04:22:04;;;;;;;9.43;5.88;;;;;;;17.42;82.78;101249.22;5056170;28;20060;-63
2021/09/16 04:24:31;;;;;;;14.23;5.88;;;;;;;17.38;83.03;101246.31;5056701;28;20049;-63
2021/09/16 04:26:58;;;;;;;10.85;6.38;;;;;;;17.72;80.95;101248.72;5055962;28;20053;-63
2021/09/16 04:29:25;;;;;;;15.23;6.30;;;;;;;17.59;81.15;101243.47;5054681;28;20040;-62
2021/09/16 04:31:53;;;;;;;14.30;6.05;;;;;;;17.52;81.52;101252.41;5053863;28;20439;-62
2021/09/16 04:34:20;;;;;;;10.63;6.50;;;;;;;17.76;80.49;101241.28;5056685;28;20049;-63
2021/09/16 04:36:48;;;;;;;11.70;5.80;;;;;;;17.44;81.31;101233.81;5056740;28;20056;-63
2021/09/16 04:39:15;;;;;;;11.75;6.10;;;;;;;17.27;82.31;101236.81;5054965;28;20060;-63
2021/09/16 04:41:42;;;;;;;12.77;6.43;;;;;;;17.24;83.10;101236.69;5056974;28;20048;-62
2021/09/16 04:44:10;;;;;;;11.13;6.03;;;;;;;16.92;84.48;101238.34;5056494;28;20049;-63
2021/09/16 04:46:37;;;;;;;13.63;6.72;;;;;;;16.54;86.74;101240.50;5052010;28;20057;-63
2021/09/16 04:49:04;;;;;;;14.52;7.13;;;;;;;16.55;87.05;101242.13;5055673;28;20614;-64
2021/09/16 04:51:31;;;;;;;14.25;7.13;;;;;;;16.77;84.96;101236.22;5055332;28;20071;-63
2021/09/16 04:53:58;;;;;;;14.23;7.07;;;;;;;16.70;85.63;101236.75;5056758;28;20557;-63
2021/09/16 04:56:26;;;;;;;12.85;7.00;;;;;;;16.78;84.87;101233.09;5055065;28;20052;-63
2021/09/16 04:58:53;;;;;;;13.35;7.45;;;;;;;16.84;84.81;101245.59;5054676;28;20060;-63
2021/09/16 05:01:20;;;;;;;12.68;6.93;;;;;;;16.98;85.20;101245.28;5056459;28;20037;-62
2021/09/16 05:03:50;;;;;;;15.80;6.78;;;;;;;16.99;84.03;101244.16;5056098;28;20049;-64
2021/09/16 05:06:18;;;;;;;13.38;6.85;;;;;;;17.23;83.01;101248.97;5055004;28;20073;-62
2021/09/16 05:08:45;;;;;;;12.85;7.55;;;;;;;17.05;83.57;101241.97;5056561;28;20044;-68
2021/09/16 05:11:13;;;;;;;12.95;6.93;;;;;;;16.95;84.36;101254.34;5056419;28;20041;-63
2021/09/16 05:13:40;;;;;;;12.20;7.03;;;;;;;16.91;84.43;101244.25;5068007;28;20049;-63
2021/09/16 05:16:07;;;;;;;13.80;7.07;;;;;;;16.82;84.83;101255.47;5076607;28;20048;-64
2021/09/16 05:18:35;;;;;;;13.65;7.53;;;;;;;16.63;85.77;101252.38;5070804;28;20057;-64
2021/09/16 05:21:02;;;;;;;11.20;6.75;;;;;;;16.86;85.77;101248.03;5044433;28;20038;-64
2021/09/16 05:23:29;;;;;;;15.50;7.43;;;;;;;16.63;86.04;101250.38;5033887;28;20049;-64
2021/09/16 05:25:57;;;;;;;15.70;7.80;;;;;;;16.81;85.15;101260.22;5033215;28;20056;-65
2021/09/16 05:28:25;;;;;;;11.70;7.70;;;;;;;16.67;85.56;101259.69;5034836;28;20405;-65
2021/09/16 05:30:54;;;;;;;12.07;7.30;;;;;;;16.83;85.34;101257.09;5054649;28;20048;-64
2021/09/16 05:33:22;;;;;;;13.43;8.45;;;;;;;16.92;84.54;101257.81;5071239;28;20056;-64
2021/09/16 05:35:50;;;;;;;16.42;7.93;;;;;;;16.78;85.02;101254.50;5053868;28;20049;-65
2021/09/16 05:38:17;;;;;;;11.52;7.15;;;;;;;16.94;84.44;101251.91;5056329;28;20049;-64
2021/09/16 05:40:44;;;;;;;15.30;7.60;;;;;;;16.61;85.49;101257.47;5055925;28;20045;-64
2021/09/16 05:43:11;;;;;;;14.35;6.97;;;;;;;16.59;85.01;101262.53;5055847;28;20043;-62
2021/09/16 05:45:39;;;;;;;11.80;6.13;;;;;;;16.73;82.92;101258.34;5053786;28;20059;-62
2021/09/16 05:48:07;;;;;;;12.80;6.13;;;;;;;16.81;81.79;101265.78;5054436;28;20389;-64
2021/09/16 05:50:34;;;;;;;17.58;6.53;;;;;;;16.89;81.94;101252.94;5056196;28;20425;-63
2021/09/16 05:53:02;;;;;;;11.73;5.97;;;;;;;17.19;80.91;101257.19;5054551;28;20053;-64
2021/09/16 05:55:30;;;;;;;11.27;5.10;;;;;;;17.02;79.09;101253.78;5070445;28;20045;-62
2021/09/16 05:57:57;;;;;;;11.00;5.05;;;;;;;16.88;79.51;101265.22;5054650;28;20037;-63
2021/09/16 06:00:25;;;;;;;15.82;5.05;;;;;;;17.06;80.02;101265.84;5055621;28;20057;-62
2021/09/16 06:02:52;;;;;;;12.68;5.97;;;;;;;17.32;78.81;101272.78;5054975;28;20051;-63
2021/09/16 06:05:19;;;;;;;10.68;5.28;;;;;;;17.13;78.39;101272.50;5052981;28;20053;-62
2021/09/16 06:07:46;;;;;;;10.50;5.85;;;;;;;17.01;79.14;101280.00;5050787;28;20052;-64
2021/09/16 06:10:14;;;;;;;11.15;4.93;;;;;;;17.23;78.70;101279.59;5067416;28;20063;-64
2021/09/16 06:12:42;;;;;;;11.07;5.07;;;;;;;17.31;77.74;101289.84;5074744;28;20036;-65
2021/09/16 06:15:10;;;;;;;14.38;5.32;;;;;;;17.23;78.62;101293.50;5054105;28;20061;-64
2021/09/16 06:17:37;;;;;;;14.00;5.40;;;;;;;17.27;77.85;101288.88;5081722;28;20053;-64
2021/09/16 06:20:06;;;;;;;11.40;5.35;;;;;;;17.19;78.15;101287.81;5053397;28;20440;-66
2021/09/16 06:22:34;;;;;;;17.83;6.15;;;;;;;17.26;77.90;101293.63;5063437;28;20400;-65
2021/09/16 06:25:02;;;;;;;12.15;6.15;;;;;;;17.38;77.93;101304.78;5056014;28;20530;-67
2021/09/16 06:27:30;;;;;;;12.77;5.65;;;;;;;17.32;77.09;101300.63;5058648;28;20036;-66
2021/09/16 06:29:58;;;;;;;16.73;5.75;;;;;;;17.19;78.03;101301.72;5057117;28;20629;-64
2021/09/16 06:32:25;;;;;;;12.68;5.57;;;;;;;17.14;78.06;101301.94;5064917;28;20044;-66
2021/09/16 06:34:52;;;;;;;11.60;5.53;;;;;;;17.05;79.21;101304.00;5044191;28;20057;-67
2021/09/16 06:37:20;;;;;;;13.73;5.10;;;;;;;17.49;77.70;101313.56;5068560;28;20050;-66
2021/09/16 06:39:47;;;;;;;14.10;5.80;;;;;;;17.10;78.09;101319.69;5056528;28;20075;-65
2021/09/16 06:42:14;;;;;;;14.80;7.60;;;;;;;17.38;78.49;101313.16;5053032;28;20056;-64
2021/09/16 06:44:42;;;;;;;15.00;5.80;;;;;;;17.77;76.43;101320.91;5066844;28;20500;-65
2021/09/16 06:47:09;;;;;;;14.23;6.22;;;;;;;17.03;77.43;101322.22;5049444;28;20050;-66
2021/09/16 06:49:40;;;;;;;11.98;6.05;;;;;;;16.99;78.80;101322.09;5052372;28;20052;-65
2021/09/16 06:52:08;;;;;;;15.63;6.72;;;;;;;17.07;78.56;101321.19;5056996;28;20044;-65
2021/09/16 06:54:35;;;;;;;18.63;6.53;;;;;;;16.88;79.74;101321.69;5061560;28;20500;-67
2021/09/16 06:57:02;;;;;;;12.65;6.28;;;;;;;17.44;77.75;101314.56;5037261;28;20238;-67
2021/09/16 06:59:29;;;;;;;12.90;6.40;;;;;;;17.78;75.90;101316.97;5071284;28;20055;-69
2021/09/16 07:01:57;;;;;;;14.13;5.75;;;;;;;17.92;75.28;101311.06;5037384;28;20068;-66
2021/09/16 07:04:24;;;;;;;16.58;6.03;;;;;;;18.06;74.51;101313.50;5048640;28;20041;-66
2021/09/16 07:06:52;;;;;;;10.68;4.95;;;;;;;18.06;73.95;101316.28;5034188;28;20458;-66
2021/09/16 07:09:19;;;;;;;14.73;5.43;;;;;;;18.22;72.33;101315.22;5036205;28;20079;-66
2021/09/16 07:11:46;;;;;;;19.27;5.53;;;;;;;18.03;72.23;101317.78;5035865;28;20068;-66
2021/09/16 07:14:13;;;;;;;12.18;5.00;;;;;;;18.15;72.05;101319.78;5033988;28;20431;-65
2021/09/16 07:16:41;;;;;;;10.93;4.25;;;;;;;18.47;70.55;101308.47;5034671;28;20045;-66
2021/09/16 07:19:08;;;;;;;13.90;5.07;;;;;;;18.35;70.21;101314.06;5048836;28;20054;-67
2021/09/16 07:21:35;;;;;;;11.73;3.85;;;;;;;18.26;69.92;101318.13;5033845;28;20049;-66
2021/09/16 07:24:03;;;;;;;14.73;4.82;;;;;;;18.24;70.16;101314.88;5033871;28;20042;-67
2021/09/16 07:26:30;;;;;;;9.98;4.47;;;;;;;18.39;69.79;101315.00;5040809;28;20049;-66
2021/09/16 07:28:59;;;;;;;12.60;5.40;;;;;;;18.22;69.45;101318.00;5054147;28;20120;-65
2021/09/16 07:31:28;;;;;;;12.02;4.47;;;;;;;17.93;71.20;101321.88;5017931;28;20072;-66
2021/09/16 07:33:56;;;;;;;10.77;4.20;;;;;;;17.87;71.08;101320.47;5041164;28;20045;-65
2021/09/16 07:36:23;;;;;;;12.70;4.50;;;;;;;17.87;71.11;101328.81;5040947;28;20051;-66
2021/09/16 07:38:51;;;;;;;18.80;5.80;;;;;;;17.97;70.46;101325.56;5050695;28;20064;-65
2021/09/16 07:41:18;;;;;;;10.80;5.18;;;;;;;18.13;70.06;101327.66;5047554;28;20042;-66
2021/09/16 07:43:45;;;;;;;13.65;4.90;;;;;;;18.08;69.21;101330.69;5031851;28;20417;-65
2021/09/16 07:46:12;;;;;;;9.77;3.97;;;;;;;17.53;70.39;101329.25;5033648;28;20054;-65
2021/09/16 07:48:40;;;;;;;9.60;3.50;;;;;;;17.80;70.12;101339.72;5036100;28;20539;-65
2021/09/16 07:51:10;;;;;;;12.60;3.83;;;;;;;17.69;69.23;101335.78;5042166;28;20049;-66
2021/09/16 07:53:38;;;;;;;8.45;3.20;;;;;;;17.79;68.22;101337.28;5036967;28;20041;-66
2021/09/16 07:56:05;;;;;;;7.57;2.85;;;;;;;17.94;66.83;101342.16;5056949;28;20061;-66
2021/09/16 07:58:32;;;;;;;11.38;3.38;;;;;;;17.76;67.52;101347.19;5038532;28;20524;-63
2021/09/16 08:01:00;;;;;;;10.13;3.33;;;;;;;17.98;67.36;101338.34;5004319;28;20049;-63
2021/09/16 08:03:28;;;;;;;7.25;2.90;;;;;;;18.16;65.64;101338.94;5041301;28;20397;-65
2021/09/16 08:05:56;;;;;;;9.77;3.05;;;;;;;18.24;65.38;101346.38;5037387;28;20053;-65
2021/09/16 08:08:23;;;;;;;8.65;2.83;;;;;;;18.09;65.15;101354.63;5041297;28;20052;-65
2021/09/16 08:10:50;;;;;;;10.07;3.72;;;;;;;18.27;65.11;101353.22;5036624;28;20413;-65
2021/09/16 08:13:17;;;;;;;11.77;3.17;;;;;;;18.48;64.53;101353.94;5040378;28;20037;-66
2021/09/16 08:15:45;;;;;;;9.27;3.55;;;;;;;18.44;64.69;101347.44;5037475;28;20378;-65
2021/09/16 08:18:16;;;;;;;8.95;2.63;;;;;;;18.57;64.01;101344.25;5049772;28;20045;-66
2021/09/16 08:20:48;;;;;;;7.35;2.83;;;;;;;18.49;63.22;101347.19;5037220;28;20046;-66
2021/09/16 08:23:17;;;;;;;12.18;3.08;;;;;;;17.98;64.06;101343.94;5043962;28;20477;-63
2021/09/16 08:25:45;;;;;;;7.05;2.55;;;;;;;18.14;63.93;101344.06;5053685;28;20059;-63
2021/09/16 08:28:12;;;;;;;8.82;2.47;;;;;;;18.41;63.78;101339.78;5044048;28;20057;-63
2021/09/16 08:30:40;;;;;;;8.27;2.40;;;;;;;18.57;62.62;101338.69;5041365;28;20049;-63
2021/09/16 08:33:08;;;;;;;8.50;3.05;;;;;;;18.28;62.64;101336.13;5039721;28;20049;-63
2021/09/16 08:35:35;;;;;;;9.30;2.90;;;;;;;18.46;62.25;101334.72;5038669;28;20507;-65
2021/09/16 08:38:03;;;;;;;12.32;3.20;;;;;;;18.38;61.72;101338.44;5055218;28;20045;-65
2021/09/16 08:40:30;;;;;;;8.02;3.13;;;;;;;18.39;62.40;101340.09;5037311;28;20372;-66
2021/09/16 08:42:58;;;;;;;9.95;3.42;;;;;;;18.71;61.42;101338.28;5037077;28;20398;-66
2021/09/16 08:45:25;;;;;;;8.48;2.88;;;;;;;18.51;61.92;101342.06;5038065;28;20504;-63
2021/09/16 08:47:54;;;;;;;6.97;3.10;;;;;;;18.40;62.66;101338.94;5036947;28;20060;-63
2021/09/16 08:50:24;;;;;;;8.93;3.50;;;;;;;18.75;62.29;101331.66;5038297;28;20045;-63
2021/09/16 08:52:51;;;;;;;;;;;;;;;18.96;61.46;101343.47;5042339;28;20049;-63
2021/09/16 08:55:19;;;;;;;8.68;3.55;;;;;;;19.13;60.84;101342.34;5036179;28;19928;-64
2021/09/16 08:57:54;;;;;;;12.65;3.50;;;;;;;19.14;60.74;101346.78;5035296;28;20061;-63
2021/09/16 09:00:21;;;;;;;8.60;2.33;;;;;;;19.16;58.93;101336.03;5035469;28;20482;-64
2021/09/16 09:02:51;;;;;;;9.43;3.35;;;;;;;18.97;59.45;101352.63;5035874;28;20037;-62
2021/09/16 09:05:19;;;;;;;9.32;3.38;;;;;;;19.26;59.17;101349.50;5035862;28;20053;-63
2021/09/16 09:07:52;;;;;;;7.07;3.05;;;;;;;18.98;59.19;101348.69;5018629;28;20049;-63
2021/09/16 09:10:45;;;;;;;8.43;2.92;;;;;;;18.54;60.76;101349.72;5035424;28;20049;-62
2021/09/16 09:13:17;;;;;;;13.52;3.55;;;;;;;18.79;60.99;101354.88;5045550;28;20044;-63
2021/09/16 09:15:46;;;;;;;10.55;3.72;;;;;;;19.20;59.26;101358.47;5042631;28;20061;-64
2021/09/16 09:18:16;;;;;;;9.82;3.40;;;;;;;19.32;58.95;101359.25;5035693;28;20053;-64
2021/09/16 09:21:00;;;;;;;7.85;2.90;;;;;;;19.27;58.01;101365.09;5034491;28;20049;-63
2021/09/16 09:23:29;;;;;;;7.65;2.83;;;;;;;19.44;57.94;101356.41;5034808;28;20045;-62
2021/09/16 09:25:57;;;;;;;7.03;2.78;;;;;;;19.22;58.08;101351.38;5035678;28;20484;-63
2021/09/16 09:28:33;;;;;;;8.68;2.70;;;;;;;19.61;57.42;101363.66;5036076;28;20516;-65
2021/09/16 09:31:15;;;;;;;7.63;3.00;;;;;;;19.95;56.54;101355.38;5036141;28;20518;-63
2021/09/16 09:33:43;;;;;;;5.28;2.95;;;;;;;19.57;55.75;101362.75;5041783;28;20053;-64
2021/09/16 09:36:18;;;;;;;7.30;3.05;;;;;;;19.44;56.84;101364.78;5042429;28;20044;-65
2021/09/16 09:38:59;;;;;;;7.88;3.30;;;;;;;19.58;56.04;101356.00;5054655;28;20056;-65
2021/09/16 09:41:35;;;;;;;7.40;3.40;;;;;;;19.45;55.94;101355.25;5042399;28;20053;-65
2021/09/16 09:44:14;;;;;;;8.27;3.08;;;;;;;19.67;55.80;101348.25;5055456;28;20055;-65
2021/09/16 09:46:47;;;;;;;9.90;2.97;;;;;;;19.90;55.45;101344.47;5046689;28;20045;-65
2021/09/16 09:49:18;;;;;;;7.82;3.25;;;;;;;20.25;54.59;101347.38;5036190;28;20401;-66
2021/09/16 09:51:45;;;;;;;;;;;;;;;19.67;54.13;101339.84;5042886;28;20159;-66
2021/09/16 09:54:17;;;;;;;5.60;3.20;;;;;;;19.61;54.95;101364.50;5038865;28;20411;-66
2021/09/16 09:57:01;;;;;;;7.88;3.42;;;;;;;19.76;54.56;101351.69;5039006;28;20520;-66
2021/09/16 09:59:48;;;;;;;8.18;3.40;;;;;;;19.75;54.12;101350.06;5048735;28;20084;-65
2021/09/16 10:02:16;;;;;;;5.47;3.28;;;;;;;20.20;53.22;101361.63;5049582;28;20136;-66
2021/09/16 10:04:44;;;;;;;6.20;2.70;;;;;;;20.07;53.57;101349.69;5040391;28;20049;-65
2021/09/16 10:07:35;;;;;;;6.93;3.00;;;;;;;19.97;53.41;101347.44;5036924;28;20567;-66
2021/09/16 10:10:08;;;;;;;5.15;2.92;;;;;;;20.17;52.29;101348.38;5041247;28;20510;-65
2021/09/16 10:12:35;;;;;;;6.32;3.15;;;;;;;19.97;52.50;101350.25;5045641;28;20044;-67
2021/09/16 10:15:12;;;;;;;8.00;3.10;;;;;;;20.16;52.67;101341.16;5034774;28;20052;-64
2021/09/16 10:17:40;;;;;;;7.60;2.90;;;;;;;20.01;52.50;101353.13;5035029;28;20052;-66
2021/09/16 10:20:09;;;;;;;7.45;3.10;;;;;;;19.84;52.72;101347.91;5035269;28;20056;-64
2021/09/16 10:22:37;;;;;;;6.75;2.97;;;;;;;19.64;53.67;101341.41;5051117;28;20060;-66
2021/09/16 10:25:06;;;;;;;8.43;3.22;;;;;;;19.63;53.86;101339.75;5052147;28;20060;-62
2021/09/16 10:27:42;;;;;;;4.88;2.80;;;;;;;19.31;54.94;101340.06;5042286;28;20064;-64
2021/09/16 10:30:22;;;;;;;18.15;3.63;;;;;;;19.60;55.61;101332.09;5067073;28;20554;-65
2021/09/16 10:33:09;;;;;;;7.00;3.35;;;;;;;20.08;53.89;101330.94;5044262;28;20064;-66
2021/09/16 10:35:47;;;;;;;6.55;2.80;;;;;;;20.44;52.75;101327.81;5034342;28;20042;-66
2021/09/16 10:38:26;;;;;;;5.93;2.80;;;;;;;20.43;52.14;101331.00;5034676;28;20049;-68
2021/09/16 10:41:24;;;;;;;8.20;3.30;;;;;;;20.08;52.44;101322.53;5034826;28;20057;-69
2021/09/16 10:44:19;;;;;;;8.98;3.88;;;;;;;20.23;52.64;101324.53;5036715;28;20045;-64
2021/09/16 10:46:48;;;;;;;6.65;3.00;;;;;;;20.28;52.02;101320.63;5044853;28;20076;-70
2021/09/16 10:49:22;;;;;;;9.25;4.40;;;;;;;20.03;52.93;101325.63;5047293;28;20045;-68
2021/09/16 10:51:56;;;;;;;7.75;3.63;;;;;;;19.92;53.24;101321.75;5035047;28;20061;-67
2021/09/16 10:54:24;;;;;;;6.70;3.38;;;;;;;20.10;53.11;101326.59;5051873;28;20048;-68
2021/09/16 10:57:10;;;;;;;9.40;4.20;;;;;;;20.05;52.93;101318.47;5064752;28;20049;-64
2021/09/16 10:59:52;;;;;;;11.45;5.13;;;;;;;20.08;53.10;101319.75;5050585;28;20040;-64
2021/09/16 11:02:38;;;;;;;8.80;5.40;;;;;;;20.29;52.25;101320.28;5041499;28;20052;-63
2021/09/16 11:05:10;;;;;;;8.25;3.65;;;;;;;20.17;52.02;101314.00;5034940;28;20057;-63
2021/09/16 11:07:38;;;;;;;5.32;2.95;;;;;;;20.30;52.71;101312.69;5033594;28;20049;-65
2021/09/16 11:10:16;;;;;;;11.73;3.78;;;;;;;20.58;51.93;101316.97;5038917;28;20049;-60
2021/09/16 11:12:48;;;;;;;8.35;3.75;;;;;;;20.32;52.22;101318.75;5055417;28;20055;-65
2021/09/16 11:15:31;;;;;;;9.05;3.72;;;;;;;20.33;52.62;101318.38;5047058;28;20053;-65
2021/09/16 11:18:09;;;;;;;6.30;3.80;;;;;;;20.33;52.01;101314.78;5045148;28;20053;-61
2021/09/16 11:20:38;;;;;;;7.55;4.03;;;;;;;20.23;51.47;101320.91;5037959;28;20053;-65
2021/09/16 11:23:06;;;;;;;6.15;3.53;;;;;;;20.42;51.36;101320.97;5053840;28;20045;-66
2021/09/16 11:25:44;;;;;;;12.93;5.80;;;;;;;20.47;51.50;101315.09;5056234;28;20408;-66
2021/09/16 11:28:12;;;;;;;8.27;3.58;;;;;;;20.58;50.67;101319.75;5039318;28;20057;-66
2021/09/16 11:30:41;;;;;;;6.68;3.47;;;;;;;20.80;49.83;101313.44;5039955;28;20060;-66